TimeCDT,TemperatureF,Dew PointF,Humidity,Sea Level PressureIn,VisibilityMPH,Wind Direction,Wind SpeedMPH,Gust SpeedMPH,PrecipitationIn,Events,Conditions,WindDirDegrees,DateUTC
12:53 AM,53.1,43.0,69,29.93,10.0,South,9.2,-,N/A,,Clear,190,2012-10-03 05:53:00
1:53 AM,53.1,43.0,69,29.93,10.0,South,8.1,-,N/A,,Clear,190,2012-10-03 06:53:00
2:53 AM,53.1,42.1,66,29.93,10.0,South,8.1,-,N/A,,Clear,190,2012-10-03 07:53:00
3:53 AM,53.1,42.1,66,29.92,10.0,South,8.1,-,N/A,,Clear,180,2012-10-03 08:53:00
4:53 AM,52.0,42.1,69,29.92,10.0,North,-9999.0,-,N/A,,Clear,0,2012-10-03 09:53:00
5:53 AM,52.0,45.0,77,29.93,10.0,South,10.4,-,N/A,,Clear,180,2012-10-03 10:53:00
6:53 AM,52.0,46.0,80,29.93,10.0,South,9.2,-,N/A,,Clear,180,2012-10-03 11:53:00
7:53 AM,52.0,46.9,83,29.94,10.0,South,8.1,-,N/A,,Clear,180,2012-10-03 12:53:00
8:53 AM,59.0,50.0,72,29.94,10.0,South,8.1,-,N/A,,Clear,170,2012-10-03 13:53:00
9:53 AM,66.0,51.1,59,29.95,10.0,South,10.4,-,N/A,,Clear,190,2012-10-03 14:53:00
10:53 AM,71.1,50.0,47,29.95,10.0,SSW,15.0,-,N/A,,Clear,200,2012-10-03 15:53:00
11:53 AM,75.9,48.9,38,29.94,10.0,SSW,19.6,-,N/A,,Clear,200,2012-10-03 16:53:00
12:53 PM,78.1,48.0,35,29.91,10.0,South,20.7,-,N/A,,Clear,190,2012-10-03 17:53:00
1:53 PM,80.1,48.9,34,29.88,10.0,South,17.3,31.1,N/A,,Clear,190,2012-10-03 18:53:00
2:53 PM,82.0,48.0,30,29.86,10.0,South,17.3,28.8,N/A,,Clear,190,2012-10-03 19:53:00
3:53 PM,82.0,48.9,31,29.86,10.0,South,19.6,29.9,N/A,,Clear,180,2012-10-03 20:53:00
4:53 PM,82.0,48.9,31,29.85,10.0,South,24.2,28.8,N/A,,Clear,190,2012-10-03 21:53:00
5:53 PM,81.0,50.0,34,29.86,10.0,South,20.7,-,N/A,,Clear,170,2012-10-03 22:53:00
6:53 PM,77.0,51.1,40,29.87,10.0,South,19.6,24.2,N/A,,Clear,170,2012-10-03 23:53:00
7:53 PM,73.0,53.1,49,29.88,10.0,SSE,12.7,-,N/A,,Clear,160,2012-10-04 00:53:00
8:53 PM,72.0,53.1,51,29.89,10.0,SSE,16.1,-,N/A,,Clear,160,2012-10-04 01:53:00
9:53 PM,70.0,53.1,55,29.91,10.0,SSE,16.1,-,N/A,,Clear,160,2012-10-04 02:53:00
10:53 PM,70.0,52.0,53,29.92,10.0,SSE,15.0,-,N/A,,Clear,160,2012-10-04 03:53:00
11:53 PM,68.0,53.1,59,29.93,10.0,SSE,16.1,-,N/A,,Clear,160,2012-10-04 04:53:00